Lancaster, CA (93536)

7:57 PM PDT on May 24, 2017 (GMT -0700)
Antelope Acres | | Change Station
Active Advisory: Wind Advisory

Elev 2444 ft 34.77 °N, 118.28 °W | Updated 10 seconds ago

Clear
Clear
71.5 °F
Feels Like 77 °F
N
7.0
Wind Variable Wind from WSW

Today
High -- | Low -- °F
--% Chance of Precip.
Yesterday
High -- | Low -- °F
Precip. -- in
Pressure 29.70 in
Visibility 10.0 miles
Clouds Clear
Heat Index 77 °F
Dew Point 44 °F
Humidity 37%
Rainfall 0.00 in
Snow Depth Not available.
5:44 AM 7:56 PM
Waning Crescent, 1% visible
METAR KWJF 250156Z 23016G28KT 10SM CLR 26/01 A2975 RMK AO2 PK WND 21030/0145 SLP055 T02610006
Pressure 29.70 in
Visibility 10.0 miles
Clouds Clear
Heat Index 77 °F
Dew Point 44 °F
Humidity 37%
Rainfall 0.00 in
Snow Depth Not available.
5:44 AM 7:56 PM
Waning Crescent, 1% visible
METAR KWJF 250156Z 23016G28KT 10SM CLR 26/01 A2975 RMK AO2 PK WND 21030/0145 SLP055 T02610006

Get Your Daily Forecast Email!

Thanks for signing up!

Be on the lookout for a verification email in your inbox.

You'll start receiving severe weather alerts in your inbox..

×

10-Day Weather Forecast

Almanac

Astronomy

May. 24, 2017 Rise Set
Actual Time
Civil Twilight
Nautical Twilight
Astronomical Twilight
Moon
Length of Visible Light
Length of Day
Tomorrow will be .
, % of the Moon is Illuminated

Today's Extremes

State Highs State Lows

Community

WunderPhotos

Category 6

Welcome to Category 6. This is the collective home for Weather Underground's featured writeups by Dr. Jeff Masters (right), Bob Henson (left), Chris Burt, and other regular contributors.

Nearby

Air Quality

  Air Quality AQ Index Pollutant
Not available.

Snow Depth

Station Depth Elevation

Earthquake Activity

City Distance Mag. Time & Date
Minimum magnitude displayed is 2.5.

Coastal Water Temperatures

Place Temperature

Stations

Nearby Weather Stations

Station Location Temp. Windchill Dew Point Humidity Wind Precip. Elev Updated Type
                   

Watches & Warnings

Wind Advisory
Issued: 2:28 PM PDT May. 24, 2017 – National Weather Service

... Wind Advisory remains in effect until 9 PM PDT this evening...

* winds and timing... southwest to west winds 20 to 30 mph with
gusts to 40 to 50 mph will persist into mid evening. Strongest
in the foothills and West Valley.

* Impacts... winds may make driving high profile vehicles difficult
as well as producing locally reduced visibilities in blowing
dust. This includes highways 14 and 138, especially near the
foothills.

Precautionary/preparedness actions...

When driving, use extra caution. Be prepared for sudden gusty
cross winds.



Mw